createdAt,value
2017-08-17T00:00:13.323Z,95619.20
2017-08-17T00:02:40.845Z,95620.73
2017-08-17T00:05:08.346Z,95619.64
2017-08-17T00:07:35.899Z,95618.95
2017-08-17T00:10:03.419Z,95611.63
2017-08-17T00:12:30.952Z,95611.17
2017-08-17T00:14:58.555Z,95610.26
2017-08-17T00:17:26.083Z,95619.94
2017-08-17T00:19:53.597Z,95614.37
2017-08-17T00:22:21.167Z,95612.69
2017-08-17T00:24:48.754Z,95612.45
2017-08-17T00:27:16.288Z,95609.98
2017-08-17T00:29:43.853Z,95614.88
2017-08-17T00:32:11.439Z,95614.55
2017-08-17T00:34:38.973Z,95617.17
2017-08-17T00:37:06.848Z,95616.09
2017-08-17T00:39:34.416Z,95615.50
2017-08-17T00:42:02.007Z,95607.94
2017-08-17T00:44:29.542Z,95613.06
2017-08-17T00:46:57.119Z,95602.66
2017-08-17T00:49:24.626Z,95608.26
2017-08-17T00:51:52.159Z,95603.84
2017-08-17T00:54:19.731Z,95602.20
2017-08-17T00:56:47.268Z,95603.58
2017-08-17T00:59:14.793Z,95600.82
2017-08-17T01:01:42.353Z,95600.01
2017-08-17T01:04:09.892Z,95592.18
2017-08-17T01:06:37.432Z,95595.11
2017-08-17T01:09:05.234Z,95596.14
2017-08-17T01:11:32.768Z,95602.66
2017-08-17T01:14:00.647Z,95598.68
2017-08-17T01:16:28.189Z,95596.94
2017-08-17T01:18:56.145Z,95592.52
2017-08-17T01:21:24.005Z,95591.06
2017-08-17T01:23:51.571Z,95590.03
2017-08-17T01:26:19.113Z,95589.67
2017-08-17T01:28:46.683Z,95593.59
2017-08-17T01:31:14.287Z,95592.58
2017-08-17T01:33:42.083Z,95595.15
2017-08-17T01:36:09.623Z,95591.60
2017-08-17T01:38:37.201Z,95582.58
2017-08-17T01:41:04.767Z,95578.02
2017-08-17T01:43:32.334Z,95579.83
2017-08-17T01:46:00.291Z,95581.20
2017-08-17T01:48:27.857Z,95585.31
2017-08-17T01:50:55.418Z,95585.09
2017-08-17T01:53:23.022Z,95583.69
2017-08-17T01:55:50.545Z,95590.55
2017-08-17T01:58:18.423Z,95583.52
2017-08-17T02:00:46.059Z,95589.98
2017-08-17T02:03:13.587Z,95585.89
2017-08-17T02:05:41.143Z,95586.52
2017-08-17T02:08:08.720Z,95586.11
2017-08-17T02:10:36.906Z,95581.01
2017-08-17T02:13:04.430Z,95587.55
2017-08-17T02:15:31.968Z,95582.61
2017-08-17T02:17:59.832Z,95588.32
2017-08-17T02:20:27.353Z,95595.81
2017-08-17T02:22:54.905Z,95593.63
2017-08-17T02:25:22.440Z,95592.05
2017-08-17T02:27:49.981Z,95591.67
2017-08-17T02:30:17.627Z,95590.73
2017-08-17T02:32:45.141Z,95595.48
2017-08-17T02:35:12.661Z,95594.87
2017-08-17T02:37:40.240Z,95589.75
2017-08-17T02:40:07.756Z,95601.16
2017-08-17T02:42:35.503Z,95599.43
2017-08-17T02:45:03.054Z,95604.72
2017-08-17T02:47:30.571Z,95608.24
2017-08-17T02:49:58.092Z,95608.05
2017-08-17T02:52:25.659Z,95612.97
2017-08-17T02:54:53.188Z,95609.58
2017-08-17T02:57:20.982Z,95607.41
2017-08-17T02:59:49.113Z,95615.25
2017-08-17T03:02:16.660Z,95620.05
2017-08-17T03:04:44.164Z,95617.42
2017-08-17T03:07:11.696Z,95621.11
2017-08-17T03:09:39.276Z,95620.28
2017-08-17T03:12:06.973Z,95625.41
2017-08-17T03:14:34.492Z,95624.23
2017-08-17T03:17:02.055Z,95620.93
2017-08-17T03:19:29.584Z,95631.72
2017-08-17T03:21:57.131Z,95632.34
2017-08-17T03:24:24.680Z,95627.05
2017-08-17T03:26:52.432Z,95630.55
2017-08-17T03:29:19.938Z,95621.35
2017-08-17T03:31:47.520Z,95619.38
2017-08-17T03:34:15.296Z,95621.75
2017-08-17T03:36:42.840Z,95620.19
2017-08-17T03:39:10.394Z,95626.45
2017-08-17T03:41:38.258Z,95623.69
2017-08-17T03:44:05.792Z,95624.48
2017-08-17T03:46:33.340Z,95623.89
2017-08-17T03:49:01.169Z,95616.24
2017-08-17T03:51:28.686Z,95619.39
2017-08-17T03:53:56.245Z,95619.18
2017-08-17T03:56:23.745Z,95618.78
2017-08-17T03:58:51.487Z,95618.60
2017-08-17T04:01:19.042Z,95621.75
2017-08-17T04:03:46.575Z,95630.51
2017-08-17T04:06:14.368Z,95621.36
2017-08-17T04:08:42.004Z,95629.98
2017-08-17T04:11:09.516Z,95618.41
2017-08-17T04:13:37.050Z,95630.55
2017-08-17T04:16:04.609Z,95627.03
2017-08-17T04:18:32.174Z,95633.71
2017-08-17T04:20:59.716Z,95635.46
2017-08-17T04:23:27.279Z,95633.49
2017-08-17T04:25:54.794Z,95634.67
2017-08-17T04:28:22.328Z,95628.56
2017-08-17T04:30:50.273Z,95630.55
2017-08-17T04:33:18.019Z,95635.82
2017-08-17T04:35:45.564Z,95637.36
2017-08-17T04:38:13.103Z,95631.03
2017-08-17T04:40:40.625Z,95635.90
2017-08-17T04:43:08.419Z,95641.03
2017-08-17T04:45:35.983Z,95640.88
2017-08-17T04:48:04.583Z,95643.98
2017-08-17T04:50:32.088Z,95651.20
2017-08-17T04:52:59.655Z,95647.23
2017-08-17T04:55:27.443Z,95647.80
2017-08-17T04:58:12.470Z,95655.45
2017-08-17T05:00:40.027Z,95653.62
2017-08-17T05:03:07.582Z,95659.34
2017-08-17T05:05:35.094Z,95657.88
2017-08-17T05:08:02.648Z,95663.66
2017-08-17T05:10:30.158Z,95664.61
2017-08-17T05:12:57.941Z,95665.28
2017-08-17T05:15:25.503Z,95670.61
2017-08-17T05:17:53.400Z,95670.28
2017-08-17T05:20:20.934Z,95668.15
2017-08-17T05:22:49.057Z,95671.00
2017-08-17T05:25:16.565Z,95671.33
2017-08-17T05:27:44.083Z,95662.25
2017-08-17T05:30:11.710Z,95666.68
2017-08-17T05:32:39.569Z,95674.70
2017-08-17T05:35:07.102Z,95668.33
2017-08-17T05:37:34.684Z,95668.97
2017-08-17T05:40:02.202Z,95664.47
2017-08-17T05:42:30.109Z,95657.76
2017-08-17T05:44:57.987Z,95659.41
2017-08-17T05:47:25.510Z,95658.19
2017-08-17T05:49:53.378Z,95662.64
2017-08-17T05:52:20.981Z,95655.70
2017-08-17T05:54:48.719Z,95654.55
2017-08-17T05:57:17.073Z,95655.13
2017-08-17T05:59:44.624Z,95651.81
2017-08-17T06:02:12.176Z,95647.48
2017-08-17T06:04:39.699Z,95651.22
2017-08-17T06:07:07.205Z,95654.85
2017-08-17T06:09:35.010Z,95652.55
2017-08-17T06:12:03.197Z,95654.11
2017-08-17T06:14:30.723Z,95655.20
2017-08-17T06:16:58.276Z,95648.75
2017-08-17T06:19:26.060Z,95652.52
2017-08-17T06:21:53.570Z,95655.16
2017-08-17T06:24:21.153Z,95659.85
2017-08-17T06:26:48.674Z,95649.92
2017-08-17T06:29:16.202Z,95662.28
2017-08-17T06:31:44.088Z,95657.38
2017-08-17T06:34:11.619Z,95656.34
2017-08-17T06:36:39.132Z,95655.06
2017-08-17T06:39:06.687Z,95653.94
2017-08-17T06:41:34.203Z,95656.20
2017-08-17T06:44:01.723Z,95656.47
2017-08-17T06:46:29.310Z,95653.05
2017-08-17T06:48:57.314Z,95654.61
2017-08-17T06:51:24.872Z,95655.13
2017-08-17T06:53:52.640Z,95656.28
2017-08-17T06:56:20.411Z,95656.11
2017-08-17T06:58:48.424Z,95660.97
2017-08-17T07:01:16.035Z,95667.36
2017-08-17T07:03:43.581Z,95663.06
2017-08-17T07:06:11.117Z,95663.19
2017-08-17T07:08:38.653Z,95666.40
2017-08-17T07:11:06.250Z,95660.19
2017-08-17T07:13:33.763Z,95658.31
2017-08-17T07:16:01.314Z,95655.64
2017-08-17T07:18:28.839Z,95660.94
2017-08-17T07:20:56.363Z,95655.90
2017-08-17T07:23:23.955Z,95663.95
2017-08-17T07:25:51.477Z,95659.88
2017-08-17T07:28:19.234Z,95665.95
2017-08-17T07:30:46.840Z,95661.31
2017-08-17T07:33:14.591Z,95668.30
2017-08-17T07:35:42.438Z,95661.08
2017-08-17T07:38:09.976Z,95660.48
2017-08-17T07:40:37.497Z,95653.92
2017-08-17T07:43:05.025Z,95662.49
2017-08-17T07:45:32.572Z,95650.53
2017-08-17T07:48:00.103Z,95657.47
2017-08-17T07:50:27.669Z,95655.91
2017-08-17T07:52:55.242Z,95658.69
2017-08-17T07:55:22.825Z,95653.27
2017-08-17T07:57:50.576Z,95654.85
2017-08-17T08:00:18.252Z,95646.53
2017-08-17T08:02:45.766Z,95647.49
2017-08-17T08:05:13.376Z,95644.26
2017-08-17T08:07:40.923Z,95650.30
2017-08-17T08:10:09.267Z,95652.05
2017-08-17T08:12:36.777Z,95644.37
2017-08-17T08:15:04.628Z,95647.67
2017-08-17T08:17:32.143Z,95644.28
2017-08-17T08:19:59.726Z,95645.41
2017-08-17T08:22:27.278Z,95647.95
2017-08-17T08:24:54.799Z,95648.63
2017-08-17T08:27:22.542Z,95642.84
2017-08-17T08:29:50.092Z,95643.87
2017-08-17T08:32:17.629Z,95648.92
2017-08-17T08:34:45.396Z,95644.92
2017-08-17T08:37:12.931Z,95644.60
2017-08-17T08:39:40.870Z,95643.70
2017-08-17T08:42:08.643Z,95640.53
2017-08-17T08:44:36.172Z,95644.78
2017-08-17T08:47:03.716Z,95643.55
2017-08-17T08:49:31.268Z,95637.30
2017-08-17T08:51:58.843Z,95629.23
2017-08-17T08:54:26.624Z,95636.22
2017-08-17T08:56:54.205Z,95632.73
2017-08-17T08:59:21.739Z,95631.92
2017-08-17T09:01:49.289Z,95627.83
2017-08-17T09:04:17.138Z,95621.24
2017-08-17T09:06:44.671Z,95620.52
2017-08-17T09:09:12.269Z,95620.22
2017-08-17T09:11:39.807Z,95616.56
2017-08-17T09:14:07.555Z,95615.16
2017-08-17T09:16:35.105Z,95614.24
2017-08-17T09:19:02.624Z,95608.55
2017-08-17T09:21:30.129Z,95612.34
2017-08-17T09:23:57.714Z,95609.34
2017-08-17T09:26:25.214Z,95602.98
2017-08-17T09:28:52.730Z,95604.56
2017-08-17T09:31:20.287Z,95605.84
2017-08-17T09:33:48.162Z,95598.77
2017-08-17T09:36:15.681Z,95594.84
2017-08-17T09:38:43.223Z,95600.34
2017-08-17T09:41:10.859Z,95594.08
2017-08-17T09:43:38.367Z,95595.86
2017-08-17T09:46:06.099Z,95596.15
2017-08-17T09:48:33.861Z,95593.26
2017-08-17T09:51:01.379Z,95586.28
2017-08-17T09:53:28.913Z,95582.48
2017-08-17T09:55:56.410Z,95591.50
2017-08-17T09:58:23.920Z,95578.84
2017-08-17T10:00:51.530Z,95579.83
2017-08-17T10:03:19.399Z,95581.42
2017-08-17T10:05:46.933Z,95579.06
2017-08-17T10:08:14.539Z,95574.34
2017-08-17T10:10:42.090Z,95567.82
2017-08-17T10:13:09.645Z,95574.20
2017-08-17T10:15:37.219Z,95571.02
2017-08-17T10:18:04.763Z,95569.06
2017-08-17T10:20:32.321Z,95568.07
2017-08-17T10:22:59.914Z,95564.78
2017-08-17T10:25:27.461Z,95562.57
2017-08-17T10:27:55.074Z,95560.27
2017-08-17T10:30:22.712Z,95560.85
2017-08-17T10:32:50.262Z,95553.75
2017-08-17T10:35:18.068Z,95556.39
2017-08-17T10:37:45.675Z,95557.70
2017-08-17T10:40:13.239Z,95545.65
2017-08-17T10:42:40.835Z,95556.67
2017-08-17T10:45:08.459Z,95546.84
2017-08-17T10:47:36.000Z,95547.44
2017-08-17T10:50:03.903Z,95552.05
2017-08-17T10:52:31.482Z,95552.78
2017-08-17T10:54:59.068Z,95545.86
2017-08-17T10:57:26.934Z,95538.47
2017-08-17T10:59:54.526Z,95531.70
2017-08-17T11:02:22.120Z,95552.27
2017-08-17T11:04:50.739Z,95541.48
2017-08-17T11:07:18.287Z,95540.13
2017-08-17T11:09:45.902Z,95541.42
2017-08-17T11:12:14.324Z,95536.77
2017-08-17T11:14:41.893Z,95533.08
2017-08-17T11:17:09.499Z,95523.68
2017-08-17T11:19:37.036Z,95521.27
2017-08-17T11:22:04.835Z,95522.71
2017-08-17T11:24:32.440Z,95522.87
2017-08-17T11:26:59.988Z,95519.91
2017-08-17T11:29:27.613Z,95516.56
2017-08-17T11:31:55.233Z,95532.67
2017-08-17T11:34:22.933Z,95524.17
2017-08-17T11:36:50.534Z,95526.22
2017-08-17T11:39:18.125Z,95514.35
2017-08-17T11:41:45.758Z,95510.93
2017-08-17T11:44:13.321Z,95507.89
2017-08-17T11:46:40.932Z,95503.22
2017-08-17T11:49:08.488Z,95508.77
2017-08-17T11:51:36.052Z,95507.85
2017-08-17T11:54:03.656Z,95506.97
2017-08-17T11:56:31.221Z,95502.05
2017-08-17T11:58:58.777Z,95505.32
2017-08-17T12:01:26.411Z,95497.35
2017-08-17T12:03:54.191Z,95488.72
2017-08-17T12:06:21.723Z,95497.61
2017-08-17T12:08:49.303Z,95490.57
2017-08-17T12:11:16.839Z,95492.66
2017-08-17T12:13:44.410Z,95502.02
2017-08-17T12:16:12.008Z,95488.33
2017-08-17T12:18:39.562Z,95489.18
2017-08-17T12:21:07.115Z,95491.09
2017-08-17T12:23:34.739Z,95482.66
2017-08-17T12:26:02.289Z,95498.33
2017-08-17T12:28:29.889Z,95495.71
2017-08-17T12:30:57.552Z,95482.33
2017-08-17T12:33:25.131Z,95492.28
2017-08-17T12:35:52.715Z,95487.31
2017-08-17T12:38:20.324Z,95473.56
2017-08-17T12:40:47.910Z,95471.74
2017-08-17T12:43:15.491Z,95476.75
2017-08-17T12:45:43.090Z,95472.58
2017-08-17T12:48:10.867Z,95472.55
2017-08-17T12:50:38.783Z,95458.70
2017-08-17T12:53:06.366Z,95474.60
2017-08-17T12:55:33.924Z,95474.92
2017-08-17T12:58:01.480Z,95469.94
2017-08-17T13:00:29.235Z,95466.55
2017-08-17T13:02:56.788Z,95458.09
2017-08-17T13:05:24.357Z,95452.89
2017-08-17T13:07:51.949Z,95450.05
2017-08-17T13:10:19.501Z,95449.88
2017-08-17T13:12:47.063Z,95439.94
2017-08-17T13:15:15.357Z,95456.08
2017-08-17T13:17:42.921Z,95456.89
2017-08-17T13:20:10.503Z,95446.37
2017-08-17T13:22:38.088Z,95456.20
2017-08-17T13:25:05.867Z,95453.95
2017-08-17T13:27:33.412Z,95464.26
2017-08-17T13:30:01.010Z,95460.24
2017-08-17T13:32:28.620Z,95457.36
2017-08-17T13:34:56.155Z,95451.33
2017-08-17T13:37:23.698Z,95456.82
2017-08-17T13:39:51.279Z,95444.75
2017-08-17T13:42:18.843Z,95446.73
2017-08-17T13:44:46.516Z,95451.95
2017-08-17T13:47:14.101Z,95447.38
2017-08-17T13:49:41.659Z,95452.09
2017-08-17T13:52:09.228Z,95448.17
2017-08-17T13:54:36.849Z,95447.56
2017-08-17T13:57:04.387Z,95446.92
2017-08-17T13:59:32.210Z,95445.50
2017-08-17T14:01:59.801Z,95453.80
2017-08-17T14:04:27.361Z,95449.80
2017-08-17T14:06:55.161Z,95438.76
2017-08-17T14:09:22.766Z,95439.36
2017-08-17T14:11:51.270Z,95430.67
2017-08-17T14:14:18.829Z,95437.56
2017-08-17T14:16:46.429Z,95441.45
2017-08-17T14:19:13.983Z,95432.78
2017-08-17T14:21:41.792Z,95431.58
2017-08-17T14:24:09.396Z,95426.52
2017-08-17T14:26:40.312Z,95438.22
2017-08-17T14:29:10.784Z,95442.80
2017-08-17T14:31:38.422Z,95445.52
2017-08-17T14:34:06.075Z,95443.63
2017-08-17T14:36:33.615Z,95457.07
2017-08-17T14:39:01.415Z,95455.84
2017-08-17T14:41:29.006Z,95458.64
2017-08-17T14:43:56.569Z,95456.69
2017-08-17T14:46:24.143Z,95456.23
2017-08-17T14:48:51.706Z,95445.84
2017-08-17T14:51:19.261Z,95451.63
2017-08-17T14:53:46.854Z,95456.89
2017-08-17T14:56:14.433Z,95451.62
2017-08-17T14:58:42.231Z,95454.59
2017-08-17T15:01:09.815Z,95459.77
2017-08-17T15:03:37.368Z,95452.02
2017-08-17T15:06:04.912Z,95460.77
2017-08-17T15:08:32.537Z,95461.16
2017-08-17T15:11:00.125Z,95469.34
2017-08-17T15:13:27.683Z,95474.56
2017-08-17T15:15:55.286Z,95467.09
2017-08-17T15:18:22.850Z,95468.76
2017-08-17T15:20:50.444Z,95480.68
2017-08-17T15:23:18.032Z,95475.13
2017-08-17T15:25:45.571Z,95469.76
2017-08-17T15:28:13.106Z,95473.16
2017-08-17T15:30:41.010Z,95472.84
2017-08-17T15:33:08.542Z,95470.95
2017-08-17T15:35:36.408Z,95477.28
2017-08-17T15:38:03.990Z,95477.59
2017-08-17T15:40:31.738Z,95476.98
2017-08-17T15:42:59.313Z,95481.37
2017-08-17T15:45:26.984Z,95474.81
2017-08-17T15:47:54.556Z,95484.78
2017-08-17T15:50:22.112Z,95484.41
2017-08-17T15:52:49.708Z,95474.03
2017-08-17T15:55:17.220Z,95474.85
2017-08-17T15:57:44.775Z,95476.92
2017-08-17T16:00:12.361Z,95473.72
2017-08-17T16:02:39.888Z,95478.66
2017-08-17T16:05:07.444Z,95485.19
2017-08-17T16:07:34.997Z,95477.27
2017-08-17T16:10:02.552Z,95481.13
2017-08-17T16:12:30.303Z,95484.80
2017-08-17T16:14:57.871Z,95478.95
2017-08-17T16:17:25.387Z,95484.30
2017-08-17T16:19:52.893Z,95484.30
2017-08-17T16:22:20.723Z,95482.77
2017-08-17T16:24:48.272Z,95484.67
2017-08-17T16:27:16.006Z,95472.93
2017-08-17T16:29:43.572Z,95483.63
2017-08-17T16:32:11.150Z,95484.46
2017-08-17T16:34:39.492Z,95481.08
2017-08-17T16:37:07.030Z,95483.86
2017-08-17T16:39:34.568Z,95483.78
2017-08-17T16:42:02.938Z,95485.98
2017-08-17T16:44:30.506Z,95489.41
2017-08-17T16:46:58.087Z,95488.61
2017-08-17T16:49:25.640Z,95505.28
2017-08-17T16:51:53.460Z,95504.80
2017-08-17T16:54:21.028Z,95508.52
2017-08-17T16:56:48.546Z,95514.19
2017-08-17T16:59:16.307Z,95521.08
2017-08-17T17:01:43.918Z,95519.08
2017-08-17T17:04:11.477Z,95519.17
2017-08-17T17:06:39.015Z,95522.80
2017-08-17T17:09:06.588Z,95531.12
2017-08-17T17:11:34.103Z,95532.15
2017-08-17T17:14:01.611Z,95537.84
2017-08-17T17:16:29.179Z,95537.38
2017-08-17T17:18:56.692Z,95549.34
2017-08-17T17:21:24.275Z,95541.03
2017-08-17T17:23:51.821Z,95550.51
2017-08-17T17:26:19.331Z,95547.84
2017-08-17T17:28:47.100Z,95555.12
2017-08-17T17:31:14.632Z,95546.18
2017-08-17T17:33:42.148Z,95557.03
2017-08-17T17:36:09.675Z,95556.09
2017-08-17T17:38:37.262Z,95557.73
2017-08-17T17:41:04.774Z,95569.62
2017-08-17T17:43:32.299Z,95560.88
2017-08-17T17:46:00.066Z,95571.83
2017-08-17T17:48:27.593Z,95569.77
2017-08-17T17:50:55.124Z,95574.27
2017-08-17T17:53:22.669Z,95574.27
2017-08-17T17:55:50.516Z,95586.27
2017-08-17T17:58:18.293Z,95590.95
2017-08-17T18:00:45.856Z,95596.42
2017-08-17T18:03:13.366Z,95598.70
2017-08-17T18:05:40.890Z,95591.57
2017-08-17T18:08:08.448Z,95597.51
2017-08-17T18:10:35.964Z,95604.76
2017-08-17T18:13:03.519Z,95606.54
2017-08-17T18:15:31.116Z,95611.69
2017-08-17T18:17:58.786Z,95605.98
2017-08-17T18:20:26.325Z,95601.09
2017-08-17T18:22:53.986Z,95602.22
2017-08-17T18:25:21.618Z,95601.27
2017-08-17T18:27:49.384Z,95611.78
2017-08-17T18:30:17.042Z,95620.84
2017-08-17T18:32:44.573Z,95629.45
2017-08-17T18:35:12.153Z,95642.75
2017-08-17T18:37:39.786Z,95638.27
2017-08-17T18:40:07.362Z,95636.88
2017-08-17T18:42:35.007Z,95638.38
2017-08-17T18:45:02.949Z,95637.52
2017-08-17T18:47:30.627Z,95638.18
2017-08-17T18:49:58.318Z,95644.89
2017-08-17T18:52:25.924Z,95652.66
2017-08-17T18:54:53.554Z,95648.55
2017-08-17T18:57:21.115Z,95654.42
2017-08-17T18:59:48.724Z,95649.53
2017-08-17T19:02:16.297Z,95647.15
2017-08-17T19:04:43.842Z,95644.75
2017-08-17T19:07:11.391Z,95642.66
2017-08-17T19:09:38.971Z,95648.48
2017-08-17T19:12:06.537Z,95641.91
2017-08-17T19:14:34.834Z,95649.72
2017-08-17T19:17:03.391Z,95651.89
2017-08-17T19:19:30.934Z,95651.52
2017-08-17T19:21:58.461Z,95649.76
2017-08-17T19:24:26.101Z,95648.87
2017-08-17T19:26:53.634Z,95643.77
2017-08-17T19:29:21.156Z,95642.92
2017-08-17T19:31:49.412Z,95639.23
2017-08-17T19:34:16.955Z,95637.41
2017-08-17T19:36:44.533Z,95636.70
2017-08-17T19:39:12.365Z,95637.11
2017-08-17T19:41:39.947Z,95641.36
2017-08-17T19:44:07.792Z,95633.80
2017-08-17T19:46:35.409Z,95636.86
2017-08-17T19:49:03.165Z,95638.80
2017-08-17T19:51:30.718Z,95631.18
2017-08-17T19:53:58.308Z,95632.84
2017-08-17T19:56:25.824Z,95633.10
2017-08-17T19:58:53.336Z,95632.94
2017-08-17T20:01:20.898Z,95633.54
2017-08-17T20:03:48.525Z,95631.27
2017-08-17T20:06:16.180Z,95641.47
2017-08-17T20:08:43.763Z,95631.69
2017-08-17T20:11:11.296Z,95640.77
2017-08-17T20:13:38.892Z,95629.30
2017-08-17T20:16:08.762Z,95627.88
2017-08-17T20:18:36.290Z,95623.98
2017-08-17T20:21:03.837Z,95629.31
2017-08-17T20:23:31.386Z,95623.74
2017-08-17T20:25:58.907Z,95620.78
2017-08-17T20:28:26.753Z,95624.78
2017-08-17T20:30:54.679Z,95622.47
2017-08-17T20:33:22.468Z,95622.64
2017-08-17T20:35:49.991Z,95626.12
2017-08-17T20:38:18.082Z,95630.46
2017-08-17T20:40:45.608Z,95624.66
2017-08-17T20:43:13.127Z,95630.59
2017-08-17T20:45:40.724Z,95627.05
2017-08-17T20:48:08.480Z,95621.91
2017-08-17T20:50:36.048Z,95624.63
2017-08-17T20:53:03.597Z,95626.57
2017-08-17T20:55:31.133Z,95627.63
2017-08-17T20:57:58.651Z,95625.73
2017-08-17T21:00:26.279Z,95629.65
2017-08-17T21:02:54.061Z,95636.09
2017-08-17T21:05:21.585Z,95638.97
2017-08-17T21:07:49.147Z,95638.84
2017-08-17T21:10:16.689Z,95644.19
2017-08-17T21:12:44.227Z,95640.84
2017-08-17T21:15:11.811Z,95647.55
2017-08-17T21:17:39.594Z,95646.34
2017-08-17T21:20:07.107Z,95648.20
2017-08-17T21:22:34.648Z,95652.22
2017-08-17T21:25:02.424Z,95650.84
2017-08-17T21:27:29.930Z,95652.75
2017-08-17T21:30:05.573Z,95653.07
2017-08-17T21:32:33.133Z,95657.70
2017-08-17T21:35:00.903Z,95651.46
2017-08-17T21:37:28.449Z,95658.34
2017-08-17T21:39:55.972Z,95651.36
2017-08-17T21:42:23.555Z,95655.42
2017-08-17T21:44:51.116Z,95649.05
2017-08-17T21:47:18.675Z,95658.59
2017-08-17T21:49:46.237Z,95652.62
2017-08-17T21:52:13.782Z,95654.34
2017-08-17T21:54:41.315Z,95654.50
2017-08-17T21:57:08.843Z,95659.95
2017-08-17T21:59:36.403Z,95667.38
2017-08-17T22:02:04.061Z,95662.27
2017-08-17T22:04:31.616Z,95666.26
2017-08-17T22:06:59.360Z,95664.34
2017-08-17T22:09:26.912Z,95668.57
2017-08-17T22:11:54.447Z,95665.11
2017-08-17T22:14:22.038Z,95667.16
2017-08-17T22:16:49.594Z,95662.77
2017-08-17T22:19:17.157Z,95666.20
2017-08-17T22:22:22.560Z,95663.90
2017-08-17T22:24:50.088Z,95672.42
2017-08-17T22:27:17.645Z,95671.75
2017-08-17T22:29:45.189Z,95673.13
2017-08-17T22:32:12.720Z,95673.58
2017-08-17T22:34:40.226Z,95676.14
2017-08-17T22:37:07.744Z,95678.39
2017-08-17T22:39:35.304Z,95680.23
2017-08-17T22:42:02.855Z,95681.34
2017-08-17T22:44:30.361Z,95684.47
2017-08-17T22:46:57.925Z,95678.91
2017-08-17T22:49:25.471Z,95672.92
2017-08-17T22:51:53.054Z,95679.18
2017-08-17T22:54:20.615Z,95681.00
2017-08-17T22:56:48.135Z,95686.20
2017-08-17T22:59:15.708Z,95680.04
2017-08-17T23:01:43.268Z,95679.20
2017-08-17T23:04:10.816Z,95681.69
2017-08-17T23:06:38.336Z,95673.81
2017-08-17T23:09:05.900Z,95683.56
2017-08-17T23:11:33.924Z,95672.95
2017-08-17T23:14:01.454Z,95681.78
2017-08-17T23:16:29.016Z,95675.33
2017-08-17T23:18:56.876Z,95674.52
2017-08-17T23:21:24.415Z,95677.89
2017-08-17T23:23:51.979Z,95675.94
2017-08-17T23:26:19.485Z,95677.47
2017-08-17T23:28:48.025Z,95681.83
2017-08-17T23:31:15.593Z,95679.27
2017-08-17T23:33:45.725Z,95679.37
2017-08-17T23:36:15.288Z,95685.44
2017-08-17T23:38:43.105Z,95679.15
2017-08-17T23:41:10.743Z,95673.03
2017-08-17T23:43:41.992Z,95675.17
2017-08-17T23:46:14.915Z,95682.78
2017-08-17T23:48:42.911Z,95679.17
2017-08-17T23:51:10.765Z,95678.78
2017-08-17T23:53:39.599Z,95670.66
2017-08-17T23:56:07.913Z,95676.23
2017-08-17T23:58:35.549Z,95674.66
